Airport View

Enter AWOS ICAO identifier for current METAR.

ex. KFNL

KMKY 191856Z AUTO 17011G16KT 10SM CLR A3010 RMK AO2 SLPNO FZRANO TSNO $

19 Jan 2020 19:09

Frequency: 120.075

Phone: 239-394-8187

Other Area AWOS: KAPF - KIMM - KRSW - KFMY

TAF KAPF 191742Z 1918/2018 18010KT P6SM FEW060 SCT250 FM200000 VRB05KT P6SM FEW020 SCT050 FM200300 29006KT P6SM FEW010 SCT025 BKN050 PROB30 2004/2008 6SM SHRA FEW007 SCT015 BKN025 FM201200 01009KT P6SM SCT025 BKN050